GREAT FALLS/88D, MT

11:56 AM MDT on April 30, 2017 (GMT -0600)
Great Falls International | | Change Station

Elev 3678 ft 47.48 °N, 111.37 °W | Updated 3 minutes ago

Mostly Cloudy
Mostly Cloudy
53 °F
Feels Like 53 °F
N
22
Wind Variable Wind from WSW
Gusts 30 mph

Today
High -- | Low -- °F
--% Chance of Precip.
Yesterday
High -- | Low -- °F
Precip. -- in
Pressure 29.94 in
Visibility 10.0 miles
Clouds Mostly Cloudy 11000 ft
Dew Point 32 °F
Humidity 45%
Rainfall 0.00 in
Snow Depth Not available.
6:09 AM 8:36 PM
Waxing Crescent, 24% visible
METAR KGTF 301753Z 24019G26KT 10SM BKN110 12/00 A2991 RMK AO2 PK WND 23026/1747 SLP139 T01170000 10117 20083 58008
Pressure 29.94 in
Visibility 10.0 miles
Clouds Mostly Cloudy 11000 ft
Dew Point 32 °F
Humidity 45%
Rainfall 0.00 in
Snow Depth Not available.
6:09 AM 8:36 PM
Waxing Crescent, 24% visible
METAR KGTF 301753Z 24019G26KT 10SM BKN110 12/00 A2991 RMK AO2 PK WND 23026/1747 SLP139 T01170000 10117 20083 58008

Get Severe Weather Alerts

Thanks for signing up!

Be on the lookout for a verification email in your inbox.

You'll start receiving the daily forecast at 8 AM.

×

10-Day Weather Forecast

Almanac

Astronomy

Apr. 30, 2017 Rise Set
Actual Time
Civil Twilight
Nautical Twilight
Astronomical Twilight
Moon
Length of Visible Light
Length of Day
Tomorrow will be .
, % of the Moon is Illuminated

Today's Extremes

State Highs State Lows

Community

WunderPhotos

WunderBlog® & News

Nearby

Air Quality

  Air Quality AQ Index Pollutant
Not available.

Snow Depth

Station Depth Elevation

Earthquake Activity

City Distance Mag. Time & Date
Minimum magnitude displayed is 2.5.

Coastal Water Temperatures

Place Temperature

Stations

Nearby Weather Stations

Station Location Temp. Windchill Dew Point Humidity Wind Precip. Elev Updated Type
                   

Watches & Warnings

There are currently no watches in effect.